sensor_id;sensor_type;location;lat;lon;timestamp;P1;durP1;ratioP1;P2;durP2;ratioP2
20154;SDS011;10238;49.556;10.956;2024-01-15T00:01:24;34.42;;;13.23;;
20154;SDS011;10238;49.556;10.956;2024-01-15T00:04:13;45.25;;;15.70;;
20154;SDS011;10238;49.556;10.956;2024-01-15T00:07:00;42.10;;;15.02;;
20154;SDS011;10238;49.556;10.956;2024-01-15T00:09:49;50.10;;;16.02;;
20154;SDS011;10238;49.556;10.956;2024-01-15T00:12:37;42.67;;;14.40;;
20154;SDS011;10238;49.556;10.956;2024-01-15T00:15:24;35.85;;;14.43;;
20154;SDS011;10238;49.556;10.956;2024-01-15T00:18:14;38.70;;;13.95;;
20154;SDS011;10238;49.556;10.956;2024-01-15T00:21:03;38.72;;;12.98;;
20154;SDS011;10238;49.556;10.956;2024-01-15T00:23:51;33.40;;;11.70;;
20154;SDS011;10238;49.556;10.956;2024-01-15T00:26:39;43.22;;;14.88;;
20154;SDS011;10238;49.556;10.956;2024-01-15T00:29:27;43.33;;;15.25;;
20154;SDS011;10238;49.556;10.956;2024-01-15T00:32:15;40.22;;;14.55;;
20154;SDS011;10238;49.556;10.956;2024-01-15T00:35:02;44.22;;;15.05;;
20154;SDS011;10238;49.556;10.956;2024-01-15T00:37:52;40.50;;;13.57;;
20154;SDS011;10238;49.556;10.956;2024-01-15T00:40:40;48.65;;;16.17;;
20154;SDS011;10238;49.556;10.956;2024-01-15T00:43:28;39.17;;;14.98;;
20154;SDS011;10238;49.556;10.956;2024-01-15T00:46:16;37.10;;;14.43;;
20154;SDS011;10238;49.556;10.956;2024-01-15T00:49:04;41.45;;;14.75;;
20154;SDS011;10238;49.556;10.956;2024-01-15T00:51:51;41.88;;;14.85;;
20154;SDS011;10238;49.556;10.956;2024-01-15T00:54:40;42.00;;;13.60;;
20154;SDS011;10238;49.556;10.956;2024-01-15T00:57:28;48.40;;;16.00;;
20154;SDS011;10238;49.556;10.956;2024-01-15T01:00:16;42.25;;;15.48;;
20154;SDS011;10238;49.556;10.956;2024-01-15T01:03:04;43.97;;;14.50;;
20154;SDS011;10238;49.556;10.956;2024-01-15T01:05:52;44.17;;;14.52;;
20154;SDS011;10238;49.556;10.956;2024-01-15T01:08:40;37.75;;;14.02;;
20154;SDS011;10238;49.556;10.956;2024-01-15T01:11:29;36.88;;;14.05;;
20154;SDS011;10238;49.556;10.956;2024-01-15T01:14:16;33.42;;;11.82;;
20154;SDS011;10238;49.556;10.956;2024-01-15T01:17:04;39.35;;;14.93;;
20154;SDS011;10238;49.556;10.956;2024-01-15T01:19:51;44.67;;;17.23;;
20154;SDS011;10238;49.556;10.956;2024-01-15T01:22:39;44.15;;;15.82;;
20154;SDS011;10238;49.556;10.956;2024-01-15T01:25:27;35.30;;;13.13;;
20154;SDS011;10238;49.556;10.956;2024-01-15T01:28:16;30.98;;;13.15;;
20154;SDS011;10238;49.556;10.956;2024-01-15T01:31:04;41.80;;;14.50;;
20154;SDS011;10238;49.556;10.956;2024-01-15T01:33:52;45.60;;;16.20;;
20154;SDS011;10238;49.556;10.956;2024-01-15T01:36:40;36.55;;;12.95;;
20154;SDS011;10238;49.556;10.956;2024-01-15T01:39:29;42.45;;;14.88;;
20154;SDS011;10238;49.556;10.956;2024-01-15T01:42:18;30.33;;;10.95;;
20154;SDS011;10238;49.556;10.956;2024-01-15T01:45:08;37.75;;;14.65;;
20154;SDS011;10238;49.556;10.956;2024-01-15T01:47:57;42.55;;;16.02;;
20154;SDS011;10238;49.556;10.956;2024-01-15T01:50:45;40.80;;;15.18;;
20154;SDS011;10238;49.556;10.956;2024-01-15T01:53:33;38.38;;;13.85;;
20154;SDS011;10238;49.556;10.956;2024-01-15T01:56:24;39.00;;;14.80;;
20154;SDS011;10238;49.556;10.956;2024-01-15T01:59:12;34.75;;;12.95;;
20154;SDS011;10238;49.556;10.956;2024-01-15T02:02:03;34.65;;;12.35;;
20154;SDS011;10238;49.556;10.956;2024-01-15T02:04:50;38.40;;;13.88;;
20154;SDS011;10238;49.556;10.956;2024-01-15T02:07:38;42.95;;;15.80;;
20154;SDS011;10238;49.556;10.956;2024-01-15T02:10:28;48.47;;;15.30;;
20154;SDS011;10238;49.556;10.956;2024-01-15T02:13:15;41.20;;;15.07;;
20154;SDS011;10238;49.556;10.956;2024-01-15T02:16:04;30.25;;;11.18;;
20154;SDS011;10238;49.556;10.956;2024-01-15T02:18:53;41.80;;;16.20;;
20154;SDS011;10238;49.556;10.956;2024-01-15T02:21:41;41.95;;;13.93;;
20154;SDS011;10238;49.556;10.956;2024-01-15T02:24:30;37.47;;;13.77;;
20154;SDS011;10238;49.556;10.956;2024-01-15T02:27:19;40.17;;;14.27;;
20154;SDS011;10238;49.556;10.956;2024-01-15T02:30:08;44.30;;;14.32;;
20154;SDS011;10238;49.556;10.956;2024-01-15T02:32:58;43.17;;;13.85;;
20154;SDS011;10238;49.556;10.956;2024-01-15T02:35:46;43.50;;;15.23;;
20154;SDS011;10238;49.556;10.956;2024-01-15T02:38:35;32.47;;;13.38;;
20154;SDS011;10238;49.556;10.956;2024-01-15T02:41:24;40.65;;;15.43;;
20154;SDS011;10238;49.556;10.956;2024-01-15T02:44:12;41.08;;;14.55;;
20154;SDS011;10238;49.556;10.956;2024-01-15T02:47:00;40.22;;;14.23;;
20154;SDS011;10238;49.556;10.956;2024-01-15T02:49:48;39.47;;;12.93;;
20154;SDS011;10238;49.556;10.956;2024-01-15T02:52:36;37.72;;;13.05;;
20154;SDS011;10238;49.556;10.956;2024-01-15T02:55:23;32.42;;;12.80;;
20154;SDS011;10238;49.556;10.956;2024-01-15T02:58:12;40.40;;;14.65;;
20154;SDS011;10238;49.556;10.956;2024-01-15T03:01:00;21.08;;;7.65;;
20154;SDS011;10238;49.556;10.956;2024-01-15T03:03:48;34.92;;;13.75;;
20154;SDS011;10238;49.556;10.956;2024-01-15T03:06:35;35.55;;;14.35;;
20154;SDS011;10238;49.556;10.956;2024-01-15T03:09:23;32.65;;;13.60;;
20154;SDS011;10238;49.556;10.956;2024-01-15T03:12:10;31.40;;;11.70;;
20154;SDS011;10238;49.556;10.956;2024-01-15T03:14:59;32.65;;;12.70;;
20154;SDS011;10238;49.556;10.956;2024-01-15T03:17:47;35.58;;;13.15;;
20154;SDS011;10238;49.556;10.956;2024-01-15T03:20:35;35.78;;;13.18;;
20154;SDS011;10238;49.556;10.956;2024-01-15T03:23:22;31.88;;;11.73;;
20154;SDS011;10238;49.556;10.956;2024-01-15T03:26:10;35.13;;;13.75;;
20154;SDS011;10238;49.556;10.956;2024-01-15T03:28:58;31.45;;;11.77;;
20154;SDS011;10238;49.556;10.956;2024-01-15T03:31:47;25.65;;;10.63;;
20154;SDS011;10238;49.556;10.956;2024-01-15T03:34:35;29.50;;;11.70;;
20154;SDS011;10238;49.556;10.956;2024-01-15T03:37:25;32.78;;;12.65;;
20154;SDS011;10238;49.556;10.956;2024-01-15T03:40:13;29.13;;;9.82;;
20154;SDS011;10238;49.556;10.956;2024-01-15T03:45:53;23.52;;;8.88;;
20154;SDS011;10238;49.556;10.956;2024-01-15T03:48:43;33.03;;;11.50;;
20154;SDS011;10238;49.556;10.956;2024-01-15T03:51:31;30.70;;;11.20;;
20154;SDS011;10238;49.556;10.956;2024-01-15T03:54:19;26.23;;;11.43;;
20154;SDS011;10238;49.556;10.956;2024-01-15T03:57:06;25.63;;;10.80;;
20154;SDS011;10238;49.556;10.956;2024-01-15T03:59:54;34.03;;;11.70;;
20154;SDS011;10238;49.556;10.956;2024-01-15T04:02:41;36.45;;;12.65;;
20154;SDS011;10238;49.556;10.956;2024-01-15T04:05:31;30.17;;;12.10;;
20154;SDS011;10238;49.556;10.956;2024-01-15T04:08:18;29.98;;;11.57;;
20154;SDS011;10238;49.556;10.956;2024-01-15T04:11:06;27.30;;;11.00;;
20154;SDS011;10238;49.556;10.956;2024-01-15T04:13:54;27.33;;;8.77;;
20154;SDS011;10238;49.556;10.956;2024-01-15T04:16:41;20.83;;;9.18;;
20154;SDS011;10238;49.556;10.956;2024-01-15T04:19:29;26.85;;;10.32;;
20154;SDS011;10238;49.556;10.956;2024-01-15T04:22:18;23.48;;;9.10;;
20154;SDS011;10238;49.556;10.956;2024-01-15T04:25:06;26.40;;;9.27;;
20154;SDS011;10238;49.556;10.956;2024-01-15T04:27:54;19.48;;;7.32;;
20154;SDS011;10238;49.556;10.956;2024-01-15T04:30:42;19.20;;;7.75;;
20154;SDS011;10238;49.556;10.956;2024-01-15T04:33:30;25.23;;;11.20;;
20154;SDS011;10238;49.556;10.956;2024-01-15T04:36:18;27.85;;;9.98;;
20154;SDS011;10238;49.556;10.956;2024-01-15T04:39:07;31.23;;;11.77;;
20154;SDS011;10238;49.556;10.956;2024-01-15T04:41:54;30.35;;;11.38;;
20154;SDS011;10238;49.556;10.956;2024-01-15T04:44:42;23.48;;;8.65;;
20154;SDS011;10238;49.556;10.956;2024-01-15T04:47:30;31.55;;;10.73;;
20154;SDS011;10238;49.556;10.956;2024-01-15T04:50:17;26.17;;;10.35;;
20154;SDS011;10238;49.556;10.956;2024-01-15T04:53:05;20.63;;;8.23;;
20154;SDS011;10238;49.556;10.956;2024-01-15T04:55:58;24.52;;;9.40;;
20154;SDS011;10238;49.556;10.956;2024-01-15T04:58:45;21.95;;;9.85;;
20154;SDS011;10238;49.556;10.956;2024-01-15T05:01:33;17.02;;;6.93;;
20154;SDS011;10238;49.556;10.956;2024-01-15T05:04:21;24.50;;;9.80;;
20154;SDS011;10238;49.556;10.956;2024-01-15T05:07:10;28.08;;;11.02;;
20154;SDS011;10238;49.556;10.956;2024-01-15T05:09:57;22.90;;;8.88;;
20154;SDS011;10238;49.556;10.956;2024-01-15T05:12:47;27.95;;;10.65;;
20154;SDS011;10238;49.556;10.956;2024-01-15T05:15:35;26.50;;;9.98;;
20154;SDS011;10238;49.556;10.956;2024-01-15T05:18:22;22.92;;;10.45;;
20154;SDS011;10238;49.556;10.956;2024-01-15T05:21:10;21.80;;;10.60;;
20154;SDS011;10238;49.556;10.956;2024-01-15T05:23:59;29.88;;;10.93;;
20154;SDS011;10238;49.556;10.956;2024-01-15T05:26:46;25.60;;;9.52;;
20154;SDS011;10238;49.556;10.956;2024-01-15T05:29:35;29.15;;;11.02;;
20154;SDS011;10238;49.556;10.956;2024-01-15T05:32:22;28.88;;;10.55;;
20154;SDS011;10238;49.556;10.956;2024-01-15T05:35:10;32.08;;;11.70;;
20154;SDS011;10238;49.556;10.956;2024-01-15T05:37:58;31.25;;;11.57;;
20154;SDS011;10238;49.556;10.956;2024-01-15T05:40:46;29.98;;;10.82;;
20154;SDS011;10238;49.556;10.956;2024-01-15T05:43:33;29.42;;;10.73;;
20154;SDS011;10238;49.556;10.956;2024-01-15T05:46:22;25.27;;;9.43;;
20154;SDS011;10238;49.556;10.956;2024-01-15T05:49:10;24.10;;;9.45;;
20154;SDS011;10238;49.556;10.956;2024-01-15T05:51:58;27.92;;;11.18;;
20154;SDS011;10238;49.556;10.956;2024-01-15T05:54:46;23.52;;;9.63;;
20154;SDS011;10238;49.556;10.956;2024-01-15T05:57:33;33.80;;;12.00;;
20154;SDS011;10238;49.556;10.956;2024-01-15T06:00:21;29.27;;;10.45;;
20154;SDS011;10238;49.556;10.956;2024-01-15T06:03:10;24.77;;;10.43;;
20154;SDS011;10238;49.556;10.956;2024-01-15T06:05:58;23.15;;;9.45;;
20154;SDS011;10238;49.556;10.956;2024-01-15T06:08:46;28.20;;;10.73;;
20154;SDS011;10238;49.556;10.956;2024-01-15T06:11:34;26.55;;;9.32;;
20154;SDS011;10238;49.556;10.956;2024-01-15T06:14:22;18.70;;;8.45;;
20154;SDS011;10238;49.556;10.956;2024-01-15T06:17:10;24.70;;;9.25;;
20154;SDS011;10238;49.556;10.956;2024-01-15T06:19:59;26.40;;;9.90;;
20154;SDS011;10238;49.556;10.956;2024-01-15T06:22:47;26.23;;;10.38;;
20154;SDS011;10238;49.556;10.956;2024-01-15T06:25:34;23.00;;;9.82;;
20154;SDS011;10238;49.556;10.956;2024-01-15T06:28:22;21.65;;;9.45;;
20154;SDS011;10238;49.556;10.956;2024-01-15T06:31:09;26.30;;;10.90;;
20154;SDS011;10238;49.556;10.956;2024-01-15T06:33:57;21.60;;;8.48;;
20154;SDS011;10238;49.556;10.956;2024-01-15T06:36:47;27.13;;;10.13;;
20154;SDS011;10238;49.556;10.956;2024-01-15T06:39:35;20.35;;;7.55;;
20154;SDS011;10238;49.556;10.956;2024-01-15T06:42:22;26.10;;;10.75;;
20154;SDS011;10238;49.556;10.956;2024-01-15T06:45:10;22.70;;;9.38;;
20154;SDS011;10238;49.556;10.956;2024-01-15T06:47:58;22.23;;;8.75;;
20154;SDS011;10238;49.556;10.956;2024-01-15T06:50:46;14.95;;;7.07;;
20154;SDS011;10238;49.556;10.956;2024-01-15T06:53:35;12.82;;;6.38;;
20154;SDS011;10238;49.556;10.956;2024-01-15T06:56:23;18.30;;;7.57;;
20154;SDS011;10238;49.556;10.956;2024-01-15T06:59:11;21.20;;;9.00;;
20154;SDS011;10238;49.556;10.956;2024-01-15T07:02:04;22.52;;;9.68;;
20154;SDS011;10238;49.556;10.956;2024-01-15T07:04:52;23.05;;;8.98;;
20154;SDS011;10238;49.556;10.956;2024-01-15T07:07:40;22.52;;;8.65;;
20154;SDS011;10238;49.556;10.956;2024-01-15T07:10:29;18.75;;;8.55;;
20154;SDS011;10238;49.556;10.956;2024-01-15T07:13:21;19.23;;;7.82;;
20154;SDS011;10238;49.556;10.956;2024-01-15T07:16:09;24.50;;;9.23;;
20154;SDS011;10238;49.556;10.956;2024-01-15T07:18:56;23.48;;;8.88;;
20154;SDS011;10238;49.556;10.956;2024-01-15T07:21:44;23.42;;;9.50;;
20154;SDS011;10238;49.556;10.956;2024-01-15T07:24:32;20.42;;;9.40;;
20154;SDS011;10238;49.556;10.956;2024-01-15T07:27:22;24.48;;;10.88;;
20154;SDS011;10238;49.556;10.956;2024-01-15T07:30:10;16.88;;;7.55;;
20154;SDS011;10238;49.556;10.956;2024-01-15T07:32:59;21.77;;;9.20;;
20154;SDS011;10238;49.556;10.956;2024-01-15T07:35:47;20.88;;;8.50;;
20154;SDS011;10238;49.556;10.956;2024-01-15T07:38:34;23.08;;;9.93;;
20154;SDS011;10238;49.556;10.956;2024-01-15T07:41:22;19.90;;;7.93;;
20154;SDS011;10238;49.556;10.956;2024-01-15T07:44:11;21.23;;;9.07;;
20154;SDS011;10238;49.556;10.956;2024-01-15T07:46:59;19.48;;;8.48;;
20154;SDS011;10238;49.556;10.956;2024-01-15T07:49:46;20.70;;;8.05;;
20154;SDS011;10238;49.556;10.956;2024-01-15T07:52:34;23.77;;;8.60;;
20154;SDS011;10238;49.556;10.956;2024-01-15T07:55:22;21.25;;;8.65;;
20154;SDS011;10238;49.556;10.956;2024-01-15T07:58:09;21.42;;;9.02;;
20154;SDS011;10238;49.556;10.956;2024-01-15T08:01:03;24.02;;;8.65;;
20154;SDS011;10238;49.556;10.956;2024-01-15T08:03:52;22.80;;;9.52;;
20154;SDS011;10238;49.556;10.956;2024-01-15T08:06:42;17.85;;;8.50;;
20154;SDS011;10238;49.556;10.956;2024-01-15T08:09:31;19.13;;;8.52;;
20154;SDS011;10238;49.556;10.956;2024-01-15T08:12:18;19.77;;;8.40;;
20154;SDS011;10238;49.556;10.956;2024-01-15T08:15:06;26.52;;;10.30;;
20154;SDS011;10238;49.556;10.956;2024-01-15T08:17:55;20.35;;;8.70;;
20154;SDS011;10238;49.556;10.956;2024-01-15T08:20:43;16.33;;;7.97;;
20154;SDS011;10238;49.556;10.956;2024-01-15T08:23:31;20.92;;;8.98;;
20154;SDS011;10238;49.556;10.956;2024-01-15T08:26:21;20.58;;;9.18;;
20154;SDS011;10238;49.556;10.956;2024-01-15T08:29:08;21.85;;;9.05;;
20154;SDS011;10238;49.556;10.956;2024-01-15T08:31:56;22.90;;;9.02;;
20154;SDS011;10238;49.556;10.956;2024-01-15T08:34:46;21.60;;;9.52;;
20154;SDS011;10238;49.556;10.956;2024-01-15T08:37:37;20.90;;;8.82;;
20154;SDS011;10238;49.556;10.956;2024-01-15T08:40:26;16.77;;;7.63;;
20154;SDS011;10238;49.556;10.956;2024-01-15T08:43:13;20.38;;;9.02;;
20154;SDS011;10238;49.556;10.956;2024-01-15T08:46:01;20.67;;;9.00;;
20154;SDS011;10238;49.556;10.956;2024-01-15T08:48:49;20.33;;;7.13;;
20154;SDS011;10238;49.556;10.956;2024-01-15T08:51:39;23.17;;;10.27;;
20154;SDS011;10238;49.556;10.956;2024-01-15T08:54:27;20.70;;;9.18;;
20154;SDS011;10238;49.556;10.956;2024-01-15T08:57:14;23.60;;;9.50;;
20154;SDS011;10238;49.556;10.956;2024-01-15T09:00:02;18.58;;;9.30;;
20154;SDS011;10238;49.556;10.956;2024-01-15T09:02:54;19.98;;;8.88;;
20154;SDS011;10238;49.556;10.956;2024-01-15T09:05:42;23.05;;;9.45;;
20154;SDS011;10238;49.556;10.956;2024-01-15T09:08:31;18.48;;;7.88;;
20154;SDS011;10238;49.556;10.956;2024-01-15T09:11:19;19.30;;;9.48;;
20154;SDS011;10238;49.556;10.956;2024-01-15T09:14:06;20.10;;;9.90;;
20154;SDS011;10238;49.556;10.956;2024-01-15T09:16:54;21.98;;;9.95;;
20154;SDS011;10238;49.556;10.956;2024-01-15T09:19:42;17.40;;;7.03;;
20154;SDS011;10238;49.556;10.956;2024-01-15T09:22:31;18.98;;;9.27;;
20154;SDS011;10238;49.556;10.956;2024-01-15T09:25:20;18.88;;;9.07;;
20154;SDS011;10238;49.556;10.956;2024-01-15T09:28:08;18.88;;;8.75;;
20154;SDS011;10238;49.556;10.956;2024-01-15T09:30:56;18.92;;;8.93;;
20154;SDS011;10238;49.556;10.956;2024-01-15T09:33:43;16.77;;;8.68;;
20154;SDS011;10238;49.556;10.956;2024-01-15T09:36:31;18.70;;;7.45;;
20154;SDS011;10238;49.556;10.956;2024-01-15T09:39:18;14.98;;;7.28;;
20154;SDS011;10238;49.556;10.956;2024-01-15T09:42:08;19.50;;;8.52;;
20154;SDS011;10238;49.556;10.956;2024-01-15T09:44:57;20.35;;;9.52;;
20154;SDS011;10238;49.556;10.956;2024-01-15T09:47:46;19.80;;;9.20;;
20154;SDS011;10238;49.556;10.956;2024-01-15T09:50:34;21.58;;;9.05;;
20154;SDS011;10238;49.556;10.956;2024-01-15T09:53:22;23.13;;;9.80;;
20154;SDS011;10238;49.556;10.956;2024-01-15T09:56:12;17.08;;;9.02;;
20154;SDS011;10238;49.556;10.956;2024-01-15T09:59:03;19.75;;;9.68;;
20154;SDS011;10238;49.556;10.956;2024-01-15T10:01:51;18.38;;;8.68;;
20154;SDS011;10238;49.556;10.956;2024-01-15T10:04:42;20.80;;;8.73;;
20154;SDS011;10238;49.556;10.956;2024-01-15T10:07:31;17.83;;;8.27;;
20154;SDS011;10238;49.556;10.956;2024-01-15T10:10:24;18.50;;;8.35;;
20154;SDS011;10238;49.556;10.956;2024-01-15T10:13:11;18.08;;;8.38;;
20154;SDS011;10238;49.556;10.956;2024-01-15T10:16:02;15.73;;;8.50;;
20154;SDS011;10238;49.556;10.956;2024-01-15T10:18:50;15.65;;;7.82;;
20154;SDS011;10238;49.556;10.956;2024-01-15T10:21:39;19.67;;;8.45;;
20154;SDS011;10238;49.556;10.956;2024-01-15T10:24:27;21.70;;;9.13;;
20154;SDS011;10238;49.556;10.956;2024-01-15T10:27:15;20.27;;;8.73;;
20154;SDS011;10238;49.556;10.956;2024-01-15T10:30:04;22.75;;;8.82;;
20154;SDS011;10238;49.556;10.956;2024-01-15T10:32:58;16.77;;;7.90;;
20154;SDS011;10238;49.556;10.956;2024-01-15T10:35:47;20.58;;;8.88;;
20154;SDS011;10238;49.556;10.956;2024-01-15T10:38:34;14.93;;;8.60;;
20154;SDS011;10238;49.556;10.956;2024-01-15T10:41:23;19.25;;;7.85;;
20154;SDS011;10238;49.556;10.956;2024-01-15T10:44:11;17.10;;;8.88;;
20154;SDS011;10238;49.556;10.956;2024-01-15T10:46:59;16.25;;;8.00;;
20154;SDS011;10238;49.556;10.956;2024-01-15T10:49:48;15.23;;;7.95;;
20154;SDS011;10238;49.556;10.956;2024-01-15T10:52:38;17.30;;;8.90;;
20154;SDS011;10238;49.556;10.956;2024-01-15T10:55:28;14.38;;;8.18;;
20154;SDS011;10238;49.556;10.956;2024-01-15T10:58:18;12.70;;;7.43;;
20154;SDS011;10238;49.556;10.956;2024-01-15T11:01:08;18.15;;;8.32;;
20154;SDS011;10238;49.556;10.956;2024-01-15T11:03:56;14.68;;;8.30;;
20154;SDS011;10238;49.556;10.956;2024-01-15T11:06:47;12.90;;;7.28;;
20154;SDS011;10238;49.556;10.956;2024-01-15T11:09:40;16.33;;;8.07;;
20154;SDS011;10238;49.556;10.956;2024-01-15T11:12:29;15.02;;;7.75;;
20154;SDS011;10238;49.556;10.956;2024-01-15T11:15:19;16.88;;;8.43;;
20154;SDS011;10238;49.556;10.956;2024-01-15T11:18:07;17.65;;;8.23;;
20154;SDS011;10238;49.556;10.956;2024-01-15T11:24:36;13.18;;;6.38;;
20154;SDS011;10238;49.556;10.956;2024-01-15T11:27:39;16.65;;;8.10;;
20154;SDS011;10238;49.556;10.956;2024-01-15T11:30:28;17.58;;;9.25;;
20154;SDS011;10238;49.556;10.956;2024-01-15T11:36:20;17.90;;;7.90;;
20154;SDS011;10238;49.556;10.956;2024-01-15T11:40:02;16.58;;;7.70;;
20154;SDS011;10238;49.556;10.956;2024-01-15T11:42:50;12.60;;;7.00;;
20154;SDS011;10238;49.556;10.956;2024-01-15T11:45:39;10.10;;;5.72;;
20154;SDS011;10238;49.556;10.956;2024-01-15T11:55:27;14.50;;;7.50;;
20154;SDS011;10238;49.556;10.956;2024-01-15T11:58:23;14.48;;;7.85;;
20154;SDS011;10238;49.556;10.956;2024-01-15T12:01:25;14.85;;;6.78;;
20154;SDS011;10238;49.556;10.956;2024-01-15T12:04:15;15.45;;;7.28;;
20154;SDS011;10238;49.556;10.956;2024-01-15T12:07:16;17.50;;;8.85;;
20154;SDS011;10238;49.556;10.956;2024-01-15T12:10:08;12.32;;;7.40;;
20154;SDS011;10238;49.556;10.956;2024-01-15T12:13:15;16.98;;;8.18;;
20154;SDS011;10238;49.556;10.956;2024-01-15T12:16:10;12.63;;;7.57;;
20154;SDS011;10238;49.556;10.956;2024-01-15T12:18:58;13.35;;;7.88;;
20154;SDS011;10238;49.556;10.956;2024-01-15T12:32:57;14.00;;;7.38;;
20154;SDS011;10238;49.556;10.956;2024-01-15T12:36:20;15.40;;;6.90;;
20154;SDS011;10238;49.556;10.956;2024-01-15T12:39:11;12.25;;;6.38;;
20154;SDS011;10238;49.556;10.956;2024-01-15T12:41:58;11.63;;;6.68;;
20154;SDS011;10238;49.556;10.956;2024-01-15T12:44:46;11.77;;;6.75;;
20154;SDS011;10238;49.556;10.956;2024-01-15T12:47:35;12.10;;;6.57;;
20154;SDS011;10238;49.556;10.956;2024-01-15T12:50:24;11.63;;;6.65;;
20154;SDS011;10238;49.556;10.956;2024-01-15T12:53:12;11.68;;;6.30;;
20154;SDS011;10238;49.556;10.956;2024-01-15T12:55:59;13.52;;;6.72;;
20154;SDS011;10238;49.556;10.956;2024-01-15T12:58:47;12.80;;;6.43;;
20154;SDS011;10238;49.556;10.956;2024-01-15T13:01:34;12.52;;;6.90;;
20154;SDS011;10238;49.556;10.956;2024-01-15T13:04:24;13.13;;;7.50;;
20154;SDS011;10238;49.556;10.956;2024-01-15T13:07:12;13.55;;;6.60;;
20154;SDS011;10238;49.556;10.956;2024-01-15T13:10:00;12.23;;;5.68;;
20154;SDS011;10238;49.556;10.956;2024-01-15T13:12:48;11.85;;;6.53;;
20154;SDS011;10238;49.556;10.956;2024-01-15T13:15:36;11.23;;;6.53;;
20154;SDS011;10238;49.556;10.956;2024-01-15T13:18:24;10.10;;;5.28;;
20154;SDS011;10238;49.556;10.956;2024-01-15T13:21:13;11.80;;;6.10;;
20154;SDS011;10238;49.556;10.956;2024-01-15T13:24:00;11.77;;;6.00;;
20154;SDS011;10238;49.556;10.956;2024-01-15T13:26:51;12.75;;;6.25;;
20154;SDS011;10238;49.556;10.956;2024-01-15T13:29:38;11.55;;;6.00;;
20154;SDS011;10238;49.556;10.956;2024-01-15T13:32:27;12.98;;;6.60;;
20154;SDS011;10238;49.556;10.956;2024-01-15T13:35:16;12.65;;;7.03;;
20154;SDS011;10238;49.556;10.956;2024-01-15T13:38:04;12.18;;;5.90;;
20154;SDS011;10238;49.556;10.956;2024-01-15T13:40:54;12.68;;;6.38;;
20154;SDS011;10238;49.556;10.956;2024-01-15T13:43:42;5.95;;;3.95;;
20154;SDS011;10238;49.556;10.956;2024-01-15T13:46:29;10.38;;;5.22;;
20154;SDS011;10238;49.556;10.956;2024-01-15T13:49:16;8.90;;;4.93;;
20154;SDS011;10238;49.556;10.956;2024-01-15T13:52:05;9.20;;;5.45;;
20154;SDS011;10238;49.556;10.956;2024-01-15T13:54:54;7.00;;;4.03;;
20154;SDS011;10238;49.556;10.956;2024-01-15T13:57:42;10.48;;;5.50;;
20154;SDS011;10238;49.556;10.956;2024-01-15T14:00:30;7.60;;;4.50;;
20154;SDS011;10238;49.556;10.956;2024-01-15T14:03:18;8.60;;;5.00;;
20154;SDS011;10238;49.556;10.956;2024-01-15T14:06:06;9.43;;;5.28;;
20154;SDS011;10238;49.556;10.956;2024-01-15T14:08:56;9.90;;;5.32;;
20154;SDS011;10238;49.556;10.956;2024-01-15T14:11:45;7.88;;;4.68;;
20154;SDS011;10238;49.556;10.956;2024-01-15T14:14:33;9.57;;;4.90;;
20154;SDS011;10238;49.556;10.956;2024-01-15T14:17:20;8.95;;;4.63;;
20154;SDS011;10238;49.556;10.956;2024-01-15T14:20:08;8.48;;;5.03;;
20154;SDS011;10238;49.556;10.956;2024-01-15T14:22:57;7.40;;;4.43;;
20154;SDS011;10238;49.556;10.956;2024-01-15T14:25:45;8.77;;;4.70;;
20154;SDS011;10238;49.556;10.956;2024-01-15T14:28:34;6.07;;;3.60;;
20154;SDS011;10238;49.556;10.956;2024-01-15T14:31:21;4.70;;;2.78;;
20154;SDS011;10238;49.556;10.956;2024-01-15T14:34:11;6.10;;;4.10;;
20154;SDS011;10238;49.556;10.956;2024-01-15T14:37:00;11.18;;;5.43;;
20154;SDS011;10238;49.556;10.956;2024-01-15T14:39:48;5.55;;;3.17;;
20154;SDS011;10238;49.556;10.956;2024-01-15T14:42:35;6.82;;;4.35;;
20154;SDS011;10238;49.556;10.956;2024-01-15T14:45:24;6.53;;;3.70;;
20154;SDS011;10238;49.556;10.956;2024-01-15T14:48:13;5.10;;;2.65;;
20154;SDS011;10238;49.556;10.956;2024-01-15T14:51:01;6.80;;;3.72;;
20154;SDS011;10238;49.556;10.956;2024-01-15T14:53:49;6.68;;;4.20;;
20154;SDS011;10238;49.556;10.956;2024-01-15T14:56:37;7.25;;;4.72;;
20154;SDS011;10238;49.556;10.956;2024-01-15T14:59:25;7.78;;;5.05;;
20154;SDS011;10238;49.556;10.956;2024-01-15T15:02:16;6.78;;;3.78;;
20154;SDS011;10238;49.556;10.956;2024-01-15T15:05:04;7.63;;;4.68;;
20154;SDS011;10238;49.556;10.956;2024-01-15T15:07:52;6.20;;;4.05;;
20154;SDS011;10238;49.556;10.956;2024-01-15T15:10:40;7.35;;;4.45;;
20154;SDS011;10238;49.556;10.956;2024-01-15T15:13:28;6.05;;;3.97;;
20154;SDS011;10238;49.556;10.956;2024-01-15T15:16:29;7.25;;;4.65;;
20154;SDS011;10238;49.556;10.956;2024-01-15T15:19:18;4.00;;;3.58;;
20154;SDS011;10238;49.556;10.956;2024-01-15T15:22:06;5.65;;;3.83;;
20154;SDS011;10238;49.556;10.956;2024-01-15T15:24:55;7.18;;;4.07;;
20154;SDS011;10238;49.556;10.956;2024-01-15T15:27:43;6.88;;;4.60;;
20154;SDS011;10238;49.556;10.956;2024-01-15T15:30:30;8.50;;;5.22;;
20154;SDS011;10238;49.556;10.956;2024-01-15T15:33:18;8.35;;;4.45;;
20154;SDS011;10238;49.556;10.956;2024-01-15T15:36:08;6.82;;;4.28;;
20154;SDS011;10238;49.556;10.956;2024-01-15T15:38:56;4.63;;;2.92;;
20154;SDS011;10238;49.556;10.956;2024-01-15T15:41:44;6.65;;;4.45;;
20154;SDS011;10238;49.556;10.956;2024-01-15T15:44:32;6.93;;;4.05;;
20154;SDS011;10238;49.556;10.956;2024-01-15T15:47:20;5.72;;;4.03;;
20154;SDS011;10238;49.556;10.956;2024-01-15T15:50:07;6.78;;;4.53;;
20154;SDS011;10238;49.556;10.956;2024-01-15T15:52:57;5.88;;;3.90;;
20154;SDS011;10238;49.556;10.956;2024-01-15T15:55:47;5.68;;;4.07;;
20154;SDS011;10238;49.556;10.956;2024-01-15T15:58:35;5.63;;;3.33;;
20154;SDS011;10238;49.556;10.956;2024-01-15T16:01:23;7.07;;;4.50;;
20154;SDS011;10238;49.556;10.956;2024-01-15T16:04:10;10.00;;;4.20;;
20154;SDS011;10238;49.556;10.956;2024-01-15T16:07:00;7.90;;;4.72;;
20154;SDS011;10238;49.556;10.956;2024-01-15T16:09:50;6.05;;;4.03;;
20154;SDS011;10238;49.556;10.956;2024-01-15T16:12:39;3.38;;;2.72;;
20154;SDS011;10238;49.556;10.956;2024-01-15T16:15:27;4.95;;;3.60;;
20154;SDS011;10238;49.556;10.956;2024-01-15T16:18:15;8.95;;;5.22;;
20154;SDS011;10238;49.556;10.956;2024-01-15T16:21:22;6.63;;;3.53;;
20154;SDS011;10238;49.556;10.956;2024-01-15T16:24:30;8.55;;;4.75;;
20154;SDS011;10238;49.556;10.956;2024-01-15T16:27:36;9.30;;;5.05;;
20154;SDS011;10238;49.556;10.956;2024-01-15T16:30:24;4.97;;;3.08;;
20154;SDS011;10238;49.556;10.956;2024-01-15T16:33:26;4.40;;;3.47;;
20154;SDS011;10238;49.556;10.956;2024-01-15T16:36:14;8.35;;;5.07;;
20154;SDS011;10238;49.556;10.956;2024-01-15T16:39:02;7.90;;;4.50;;
20154;SDS011;10238;49.556;10.956;2024-01-15T16:41:50;8.15;;;4.60;;
20154;SDS011;10238;49.556;10.956;2024-01-15T16:44:40;7.00;;;4.68;;
20154;SDS011;10238;49.556;10.956;2024-01-15T16:47:27;11.75;;;6.15;;
20154;SDS011;10238;49.556;10.956;2024-01-15T16:50:15;8.55;;;5.50;;
20154;SDS011;10238;49.556;10.956;2024-01-15T16:53:04;8.95;;;5.70;;